Time;durP1;ratioP1;P1;durP2;ratioP2;P2;SDS_P1;SDS_P2;PMS_P1;PMS_P2;Temp;Humidity;BMP_temperature;BMP_pressure;BME280_temperature;BME280_humidity;BME280_pressure;Samples;Min_cycle;Max_cycle;Signal;HPM_P1;HPM_P2
2022/04/14 00:01:34;;;;;;;15.35;8.48;;;16.10;51.70;;;;;;5015576;28;20088;-77
2022/04/14 00:04:00;;;;;;;17.55;8.68;;;16.00;51.60;;;;;;5015421;28;20065;-76
2022/04/14 00:06:26;;;;;;;15.45;9.20;;;16.00;52.10;;;;;;5015757;28;20068;-77
2022/04/14 00:08:54;;;;;;;18.80;7.90;;;16.00;51.80;;;;;;5015312;28;20026;-77
2022/04/14 00:11:20;;;;;;;18.73;9.02;;;15.90;51.60;;;;;;5015431;28;20030;-74
2022/04/14 00:13:46;;;;;;;17.30;8.20;;;15.90;52.20;;;;;;5015311;28;20112;-77
2022/04/14 00:16:12;;;;;;;18.13;7.82;;;15.90;52.00;;;;;;5015257;28;20022;-78
2022/04/14 00:18:37;;;;;;;19.17;8.07;;;15.90;52.30;;;;;;5015188;28;20549;-77
2022/04/14 00:21:03;;;;;;;15.55;7.93;;;15.90;52.50;;;;;;5015169;28;20033;-77
2022/04/14 00:23:29;;;;;;;14.60;7.53;;;15.90;52.70;;;;;;5015116;28;20026;-79
2022/04/14 00:25:55;;;;;;;15.55;7.75;;;15.80;53.00;;;;;;5015223;28;20030;-77
2022/04/14 00:28:20;;;;;;;14.00;7.90;;;15.80;52.90;;;;;;5015417;28;20101;-76
2022/04/14 00:30:46;;;;;;;13.15;7.63;;;15.70;52.80;;;;;;5015079;28;20037;-78
2022/04/14 00:33:12;;;;;;;14.45;7.53;;;15.70;53.00;;;;;;5014844;28;20037;-77
2022/04/14 00:35:37;;;;;;;15.32;7.50;;;15.70;53.10;;;;;;5014731;28;20029;-77
2022/04/14 00:38:03;;;;;;;14.63;7.78;;;15.60;53.30;;;;;;5014799;28;20533;-75
2022/04/14 00:40:29;;;;;;;17.75;7.80;;;15.50;53.40;;;;;;5015130;28;20033;-77
2022/04/14 00:42:55;;;;;;;23.55;8.45;;;15.50;53.80;;;;;;5014772;28;20372;-75
2022/04/14 00:45:21;;;;;;;18.08;7.97;;;15.50;54.10;;;;;;5014586;28;20076;-76
2022/04/14 00:47:48;;;;;;;28.75;7.70;;;15.40;53.70;;;;;;5013016;28;20058;-77
2022/04/14 00:50:13;;;;;;;15.75;7.45;;;15.50;54.20;;;;;;5013527;28;20388;-78
2022/04/14 00:52:46;;;;;;;13.07;8.07;;;15.40;53.80;;;;;;5014805;28;20099;-77
2022/04/14 00:55:14;;;;;;;15.65;7.93;;;15.40;54.10;;;;;;5015096;28;20033;-79
2022/04/14 00:57:40;;;;;;;16.23;7.35;;;15.40;54.00;;;;;;5015308;28;20034;-79
2022/04/14 01:00:06;;;;;;;15.25;8.02;;;15.40;54.20;;;;;;5014814;28;20026;-79
2022/04/14 01:02:33;;;;;;;16.23;8.27;;;15.30;54.60;;;;;;5017394;28;20113;-76
2022/04/14 01:04:59;;;;;;;17.33;7.80;;;15.40;54.30;;;;;;5015818;28;20034;-75
2022/04/14 01:07:26;;;;;;;14.23;7.90;;;15.30;54.70;;;;;;5014796;28;20364;-77
2022/04/14 01:09:54;;;;;;;17.10;7.38;;;15.30;54.50;;;;;;5014350;28;20538;-79
2022/04/14 01:12:19;;;;;;;18.15;8.13;;;15.30;54.70;;;;;;5014295;28;20161;-76
2022/04/14 01:14:45;;;;;;;14.00;7.75;;;15.30;55.00;;;;;;5014228;28;20072;-79
2022/04/14 01:17:11;;;;;;;17.83;7.55;;;15.20;55.10;;;;;;5014555;28;20018;-80
2022/04/14 01:19:38;;;;;;;15.75;7.78;;;15.20;55.40;;;;;;5014374;28;20410;-73
2022/04/14 01:22:07;;;;;;;16.25;8.57;;;15.10;55.40;;;;;;5014234;28;20080;-74
2022/04/14 01:24:34;;;;;;;14.70;7.60;;;15.10;55.40;;;;;;5013805;28;20038;-76
2022/04/14 01:27:00;;;;;;;17.63;7.97;;;15.10;55.40;;;;;;5014129;28;20026;-77
2022/04/14 01:29:27;;;;;;;14.07;7.75;;;15.00;55.80;;;;;;5014052;28;20064;-74
2022/04/14 01:31:55;;;;;;;19.20;7.78;;;15.00;55.70;;;;;;5013882;28;20076;-79
2022/04/14 01:34:20;;;;;;;16.55;7.95;;;15.00;56.10;;;;;;5013718;28;20045;-77
2022/04/14 01:36:46;;;;;;;15.23;8.05;;;14.90;55.80;;;;;;5013804;28;20471;-76
2022/04/14 01:39:13;;;;;;;12.77;7.13;;;15.00;55.90;;;;;;5013754;28;20017;-80
2022/04/14 01:41:39;;;;;;;13.27;7.47;;;15.00;56.10;;;;;;5013846;28;20026;-71
2022/04/14 01:44:06;;;;;;;13.38;7.50;;;15.00;56.10;;;;;;5013576;28;20034;-77
2022/04/14 01:46:32;;;;;;;17.13;7.40;;;15.00;55.70;;;;;;5014742;28;20034;-76
2022/04/14 01:49:01;;;;;;;12.40;7.63;;;15.00;56.30;;;;;;5015268;28;20514;-74
2022/04/14 01:51:28;;;;;;;14.73;6.68;;;15.00;56.20;;;;;;5014700;28;20037;-75
2022/04/14 01:53:55;;;;;;;17.23;7.70;;;14.90;56.00;;;;;;5012399;28;20524;-78
2022/04/14 01:56:24;;;;;;;12.02;7.47;;;14.90;56.20;;;;;;5013582;28;20108;-78
2022/04/14 01:58:49;;;;;;;15.02;8.18;;;14.80;56.30;;;;;;5012949;28;20022;-77
2022/04/14 02:01:16;;;;;;;12.65;7.43;;;14.80;56.20;;;;;;5013738;28;20477;-77
2022/04/14 02:03:41;;;;;;;12.63;7.65;;;14.70;56.20;;;;;;5013313;28;20041;-75
2022/04/14 02:06:08;;;;;;;15.63;7.68;;;14.80;56.50;;;;;;5013701;28;20026;-78
2022/04/14 02:08:33;;;;;;;27.35;8.02;;;14.80;56.10;;;;;;5013746;28;20029;-78
2022/04/14 02:10:59;;;;;;;14.73;7.60;;;14.70;56.10;;;;;;5013507;28;20399;-76
2022/04/14 02:13:25;;;;;;;13.80;7.30;;;14.70;56.20;;;;;;5013896;28;20104;-77
2022/04/14 02:15:50;;;;;;;18.75;8.10;;;14.60;56.20;;;;;;5016545;28;20458;-78
2022/04/14 02:18:16;;;;;;;10.55;7.03;;;14.50;56.30;;;;;;5018884;28;20025;-79
2022/04/14 02:20:41;;;;;;;14.35;7.40;;;14.50;56.50;;;;;;5014800;28;20026;-77
2022/04/14 02:23:07;;;;;;;11.00;6.90;;;14.40;56.60;;;;;;5014998;28;20104;-79
2022/04/14 02:25:33;;;;;;;13.25;7.75;;;14.30;56.90;;;;;;5015004;28;20096;-79
2022/04/14 02:27:59;;;;;;;13.95;7.80;;;14.30;57.10;;;;;;5014169;28;20018;-77
2022/04/14 02:30:27;;;;;;;14.52;7.93;;;14.40;57.00;;;;;;5014100;28;20479;-80
2022/04/14 02:32:52;;;;;;;12.82;7.82;;;14.40;57.30;;;;;;5013907;28;20018;-79
2022/04/14 02:35:18;;;;;;;14.52;8.05;;;14.30;57.10;;;;;;5013785;28;20029;-80
2022/04/14 02:37:43;;;;;;;15.63;7.80;;;14.30;57.20;;;;;;5013595;28;20090;-78
2022/04/14 02:40:10;;;;;;;14.25;7.80;;;14.30;57.60;;;;;;5013738;28;20037;-79
2022/04/14 02:42:35;;;;;;;12.63;7.40;;;14.20;57.50;;;;;;5012431;28;20467;-78
2022/04/14 02:45:01;;;;;;;15.95;7.60;;;14.20;57.70;;;;;;5017604;28;20044;-76
2022/04/14 02:47:27;;;;;;;14.55;8.15;;;14.20;57.60;;;;;;5017482;28;20054;-77
2022/04/14 02:49:52;;;;;;;13.20;7.32;;;14.10;58.20;;;;;;5013746;28;20034;-78
2022/04/14 02:52:18;;;;;;;10.48;7.47;;;14.10;58.10;;;;;;5013727;28;20033;-78
2022/04/14 02:54:44;;;;;;;12.55;6.97;;;14.00;58.20;;;;;;5013407;28;20026;-78
2022/04/14 02:57:10;;;;;;;13.20;7.30;;;14.00;58.30;;;;;;5013330;28;20022;-79
2022/04/14 02:59:38;;;;;;;10.80;7.22;;;14.00;58.60;;;;;;5013799;28;20053;-78
2022/04/14 03:02:04;;;;;;;15.98;7.75;;;13.90;58.90;;;;;;5013617;28;20418;-79
2022/04/14 03:04:30;;;;;;;10.50;6.45;;;13.90;59.30;;;;;;5013243;28;20041;-79
2022/04/14 03:06:57;;;;;;;12.45;7.45;;;13.90;59.10;;;;;;5013441;28;20037;-79
2022/04/14 03:09:23;;;;;;;14.40;7.00;;;13.90;59.10;;;;;;5013444;28;20030;-78
2022/04/14 03:11:49;;;;;;;11.88;6.40;;;13.90;59.30;;;;;;5016578;28;20022;-79
2022/04/14 03:14:15;;;;;;;12.23;6.85;;;13.90;59.60;;;;;;5017156;28;20034;-79
2022/04/14 03:16:40;;;;;;;14.35;7.20;;;13.90;59.30;;;;;;5017269;28;20022;-78
2022/04/14 03:19:06;;;;;;;12.60;6.55;;;13.90;59.60;;;;;;5017416;28;20042;-77
2022/04/14 03:21:31;;;;;;;13.32;7.10;;;13.90;59.50;;;;;;5017552;28;20105;-79
2022/04/14 03:23:57;;;;;;;9.30;6.80;;;13.90;59.60;;;;;;5016917;28;20444;-80
2022/04/14 03:26:23;;;;;;;13.63;7.25;;;13.90;60.00;;;;;;5017085;28;20058;-78
2022/04/14 03:28:49;;;;;;;14.40;7.50;;;13.90;59.90;;;;;;5017157;28;20050;-78
2022/04/14 03:31:14;;;;;;;10.50;6.82;;;13.90;59.70;;;;;;5017042;28;20032;-77
2022/04/14 03:33:40;;;;;;;15.02;7.55;;;13.90;60.00;;;;;;5016897;28;20101;-77
2022/04/14 03:36:06;;;;;;;10.60;6.25;;;13.90;60.50;;;;;;5015717;28;20030;-79
2022/04/14 03:38:32;;;;;;;14.05;7.10;;;13.80;61.10;;;;;;5015640;28;20460;-79
2022/04/14 03:40:59;;;;;;;12.98;7.22;;;13.90;60.90;;;;;;5017133;28;20037;-79
2022/04/14 03:43:25;;;;;;;12.70;6.88;;;13.90;61.00;;;;;;5025917;28;20030;-79
2022/04/14 03:45:52;;;;;;;11.65;6.90;;;13.90;60.80;;;;;;5033998;28;20038;-77
2022/04/14 03:48:18;;;;;;;10.07;7.07;;;13.90;61.00;;;;;;5036555;28;20046;-75
2022/04/14 03:50:43;;;;;;;13.52;6.65;;;13.90;60.80;;;;;;5036529;28;20044;-78
2022/04/14 03:53:09;;;;;;;12.57;7.13;;;13.80;60.90;;;;;;5025830;28;20062;-78
2022/04/14 03:55:35;;;;;;;16.35;7.15;;;13.80;61.20;;;;;;5020160;28;20099;-79
2022/04/14 03:58:01;;;;;;;13.52;7.47;;;13.80;61.10;;;;;;5018728;28;20534;-79
2022/04/14 04:00:26;;;;;;;15.27;7.75;;;13.80;61.10;;;;;;5016247;28;20471;-79
2022/04/14 04:02:52;;;;;;;11.55;7.50;;;13.80;60.70;;;;;;5016053;28;20112;-80
2022/04/14 04:05:18;;;;;;;12.40;6.93;;;13.80;61.70;;;;;;5015732;28;20030;-79
2022/04/14 04:07:43;;;;;;;15.40;7.22;;;13.70;61.50;;;;;;5015673;28;20383;-80
2022/04/14 04:10:09;;;;;;;13.20;7.70;;;13.60;61.40;;;;;;5015905;28;20025;-79
2022/04/14 04:12:35;;;;;;;12.05;7.10;;;13.60;62.10;;;;;;5015475;28;20040;-79
2022/04/14 04:15:01;;;;;;;11.98;7.40;;;13.60;62.20;;;;;;5015458;28;20030;-78
2022/04/14 04:17:29;;;;;;;15.57;8.07;;;13.60;62.50;;;;;;5015438;28;20026;-77
2022/04/14 04:19:55;;;;;;;23.95;8.20;;;13.50;62.50;;;;;;5015326;28;20022;-79
2022/04/14 04:22:21;;;;;;;14.13;8.05;;;13.50;62.70;;;;;;5014609;28;20172;-76
2022/04/14 04:25:24;;;;;;;13.85;7.85;;;13.50;63.00;;;;;;5014994;28;20034;-78
2022/04/14 04:27:50;;;;;;;15.43;8.57;;;13.50;63.50;;;;;;5015194;28;20034;-77
2022/04/14 04:30:16;;;;;;;13.88;8.10;;;13.40;63.70;;;;;;5013992;28;20029;-79
2022/04/14 04:32:42;;;;;;;11.77;7.95;;;13.40;63.50;;;;;;5015259;28;20387;-79
2022/04/14 04:35:09;;;;;;;18.02;8.38;;;13.40;63.60;;;;;;5015023;28;20482;-79
2022/04/14 04:37:35;;;;;;;16.50;8.18;;;13.40;63.70;;;;;;5015254;28;20057;-79
2022/04/14 04:40:01;;;;;;;13.93;8.00;;;13.40;64.00;;;;;;5015011;28;20030;-80
2022/04/14 04:42:26;;;;;;;14.32;7.75;;;13.50;64.10;;;;;;5013796;28;20038;-81
2022/04/14 04:44:52;;;;;;;14.63;8.45;;;13.50;64.30;;;;;;5014863;28;20030;-79
2022/04/14 04:47:20;;;;;;;19.02;8.52;;;13.50;64.10;;;;;;5014703;28;20057;-80
2022/04/14 04:49:46;;;;;;;16.77;9.35;;;13.50;64.20;;;;;;5014966;28;20395;-79
2022/04/14 04:52:12;;;;;;;14.80;9.25;;;13.50;64.10;;;;;;5014860;28;20033;-79
2022/04/14 04:54:38;;;;;;;19.98;8.27;;;13.50;64.30;;;;;;5014843;28;20026;-80
2022/04/14 04:57:04;;;;;;;21.80;9.30;;;13.50;64.20;;;;;;5015505;28;20026;-79
2022/04/14 04:59:30;;;;;;;14.55;7.85;;;13.50;64.50;;;;;;5017544;28;20053;-79
2022/04/14 05:01:55;;;;;;;15.52;7.75;;;13.50;64.40;;;;;;5020866;28;20029;-79
2022/04/14 05:04:21;;;;;;;14.60;8.15;;;13.60;64.60;;;;;;5015127;28;20073;-78
2022/04/14 05:06:47;;;;;;;16.45;8.68;;;13.60;64.20;;;;;;5015010;28;20026;-80
2022/04/14 05:09:13;;;;;;;14.73;8.63;;;13.60;64.00;;;;;;5013321;28;20038;-81
2022/04/14 05:11:38;;;;;;;14.25;7.88;;;13.50;64.20;;;;;;5021960;28;20045;-81
2022/04/14 05:14:04;;;;;;;11.88;7.43;;;13.50;64.20;;;;;;5021599;28;20029;-79
2022/04/14 05:16:30;;;;;;;16.08;8.25;;;13.60;64.50;;;;;;5022538;28;20033;-79
2022/04/14 05:18:56;;;;;;;13.20;7.95;;;13.60;64.50;;;;;;5015707;28;20030;-80
2022/04/14 05:21:21;;;;;;;13.02;8.15;;;13.50;64.60;;;;;;5015045;28;20390;-80
2022/04/14 05:23:47;;;;;;;16.10;7.90;;;13.50;64.30;;;;;;5014245;28;20030;-77
2022/04/14 05:26:13;;;;;;;13.70;7.65;;;13.60;64.50;;;;;;5014102;28;20438;-80
2022/04/14 05:28:38;;;;;;;11.98;7.55;;;13.60;64.20;;;;;;5014132;28;20100;-79
2022/04/14 05:31:04;;;;;;;13.48;7.63;;;13.70;64.30;;;;;;5014095;28;20427;-73
2022/04/14 05:33:30;;;;;;;19.90;8.48;;;13.70;64.20;;;;;;5019783;28;20360;-79
2022/04/14 05:35:55;;;;;;;21.75;8.25;;;13.60;63.80;;;;;;5029407;28;20468;-75
2022/04/14 05:38:24;;;;;;;10.88;7.00;;;13.70;63.90;;;;;;5035266;28;20085;-77
2022/04/14 05:40:50;;;;;;;11.90;7.25;;;13.70;64.30;;;;;;5035392;28;20466;-78
2022/04/14 05:43:28;;;;;;;21.60;7.35;;;13.80;63.60;;;;;;5021949;28;20029;-78
2022/04/14 05:45:57;;;;;;;15.07;7.65;;;13.90;63.50;;;;;;5014354;28;20048;-75
2022/04/14 05:48:23;;;;;;;14.52;7.57;;;14.00;63.20;;;;;;5018591;28;20121;-75
2022/04/14 05:50:50;;;;;;;14.35;7.63;;;14.10;63.00;;;;;;5032377;28;20049;-71
2022/04/14 05:53:17;;;;;;;12.32;7.57;;;14.20;62.50;;;;;;5030197;28;20391;-76
2022/04/14 05:55:44;;;;;;;16.13;7.57;;;14.40;62.50;;;;;;4996377;28;20467;-75
2022/04/14 05:58:12;;;;;;;15.82;7.80;;;14.70;61.70;;;;;;5013190;28;20475;-75
2022/04/14 06:00:38;;;;;;;15.48;7.50;;;14.90;61.20;;;;;;5015222;28;20052;-75
2022/04/14 06:03:03;;;;;;;15.02;7.05;;;15.10;60.40;;;;;;5021428;28;20412;-74
2022/04/14 06:05:30;;;;;;;13.40;6.95;;;15.20;59.50;;;;;;5023775;28;20041;-75
2022/04/14 06:07:56;;;;;;;14.65;7.57;;;15.30;59.20;;;;;;5032873;28;20041;-75
2022/04/14 06:10:23;;;;;;;18.10;7.22;;;15.40;59.00;;;;;;5033005;28;20374;-74
2022/04/14 06:12:50;;;;;;;14.18;7.60;;;15.40;58.70;;;;;;5032789;28;20080;-74
2022/04/14 06:15:16;;;;;;;12.73;7.40;;;15.50;58.40;;;;;;5032488;28;20079;-74
2022/04/14 06:17:43;;;;;;;11.52;7.30;;;15.80;58.60;;;;;;5032761;28;20045;-75
2022/04/14 06:20:09;;;;;;;13.63;7.40;;;16.00;57.70;;;;;;5032881;28;20057;-75
2022/04/14 06:22:43;;;;;;;19.38;7.28;;;16.30;57.60;;;;;;5033328;28;20052;-72
2022/04/14 06:25:13;;;;;;;16.48;7.20;;;16.30;58.00;;;;;;5031276;28;20124;-74
2022/04/14 06:27:46;;;;;;;14.88;7.40;;;16.30;56.40;;;;;;5031197;28;20022;-76
2022/04/14 06:30:17;;;;;;;15.70;7.20;;;16.40;55.90;;;;;;5031463;28;20060;-75
2022/04/14 06:32:54;;;;;;;12.15;7.43;;;16.40;56.40;;;;;;5032565;28;20026;-75
2022/04/14 06:35:20;;;;;;;15.27;7.28;;;16.50;56.30;;;;;;5032242;28;20553;-73
2022/04/14 06:37:45;;;;;;;13.23;6.90;;;16.70;55.60;;;;;;5032461;28;20112;-71
2022/04/14 06:40:11;;;;;;;18.48;7.70;;;16.80;55.50;;;;;;5032630;28;20375;-75
2022/04/14 06:42:37;;;;;;;17.55;7.30;;;17.00;55.40;;;;;;5032622;28;20053;-78
2022/04/14 06:45:03;;;;;;;12.38;7.32;;;17.20;55.70;;;;;;5032881;28;20098;-74
2022/04/14 06:47:29;;;;;;;16.15;8.20;;;17.30;55.50;;;;;;5037302;28;20084;-78
2022/04/14 06:49:55;;;;;;;16.30;7.60;;;17.50;55.10;;;;;;5037421;28;20079;-74
2022/04/14 06:52:23;;;;;;;16.38;8.02;;;17.50;54.90;;;;;;5021059;28;20065;-76
2022/04/14 06:54:51;;;;;;;15.57;7.57;;;17.70;54.10;;;;;;5035405;28;20076;-76
2022/04/14 06:57:18;;;;;;;12.80;7.10;;;17.80;53.90;;;;;;5036284;28;20033;-70
2022/04/14 06:59:43;;;;;;;15.10;8.02;;;17.90;53.80;;;;;;5037539;28;20409;-72
2022/04/14 07:02:09;;;;;;;18.58;7.53;;;18.00;53.60;;;;;;5036703;28;20470;-75
2022/04/14 07:04:35;;;;;;;21.85;7.30;;;18.00;53.00;;;;;;5036891;28;20037;-72
2022/04/14 07:07:02;;;;;;;15.98;6.43;;;18.00;53.30;;;;;;5036026;28;20037;-70
2022/04/14 07:09:32;;;;;;;13.02;6.75;;;18.10;53.20;;;;;;5035880;28;20037;-75
2022/04/14 07:12:02;;;;;;;15.63;6.85;;;18.20;51.70;;;;;;5020647;28;20360;-73
2022/04/14 07:14:31;;;;;;;15.70;7.43;;;18.30;52.60;;;;;;5015922;28;20532;-74
2022/04/14 07:17:00;;;;;;;13.60;6.35;;;18.50;52.60;;;;;;5016070;28;20033;-74
2022/04/14 07:19:26;;;;;;;12.88;6.05;;;18.70;52.30;;;;;;5015729;28;20121;-70
2022/04/14 07:21:52;;;;;;;13.48;6.80;;;18.70;51.60;;;;;;5016283;28;20029;-76
2022/04/14 07:24:18;;;;;;;14.10;6.13;;;18.80;51.40;;;;;;5015480;28;20034;-77
2022/04/14 07:26:44;;;;;;;12.18;6.30;;;18.80;51.30;;;;;;4998263;28;20435;-75
2022/04/14 07:29:10;;;;;;;12.85;6.10;;;18.70;51.00;;;;;;5015854;28;20022;-77
2022/04/14 07:31:37;;;;;;;10.77;5.80;;;18.80;50.90;;;;;;5015690;28;20029;-76
2022/04/14 07:34:04;;;;;;;24.08;6.18;;;19.00;50.80;;;;;;5014218;28;20026;-76
2022/04/14 07:36:30;;;;;;;21.23;13.23;;;19.00;50.80;;;;;;5015686;28;20080;-76
2022/04/14 07:38:57;;;;;;;19.33;8.05;;;19.10;50.50;;;;;;5016095;28;20419;-77
2022/04/14 07:41:23;;;;;;;12.75;7.20;;;19.10;49.60;;;;;;5015939;28;20034;-76
2022/04/14 07:43:49;;;;;;;14.90;6.63;;;19.00;50.20;;;;;;5015428;28;20021;-75
2022/04/14 07:46:15;;;;;;;13.93;5.95;;;19.00;50.30;;;;;;5015724;28;20037;-78
2022/04/14 07:48:40;;;;;;;13.70;6.03;;;19.10;50.30;;;;;;5015724;28;20042;-73
2022/04/14 07:51:08;;;;;;;18.83;5.78;;;19.10;50.20;;;;;;5015667;28;20038;-78
2022/04/14 07:53:33;;;;;;;12.60;5.88;;;19.00;50.10;;;;;;5014269;28;20034;-76
2022/04/14 07:55:59;;;;;;;13.90;5.25;;;19.10;50.00;;;;;;5014273;28;20386;-77
2022/04/14 07:58:25;;;;;;;13.05;6.05;;;19.20;49.90;;;;;;5014871;28;20026;-76
2022/04/14 08:00:51;;;;;;;9.57;5.70;;;19.20;49.70;;;;;;5015775;28;20029;-79
2022/04/14 08:03:17;;;;;;;12.40;5.20;;;19.30;49.60;;;;;;5016542;28;20391;-78
2022/04/14 08:05:46;;;;;;;11.52;5.43;;;19.30;49.20;;;;;;5015466;28;20068;-77
2022/04/14 08:08:20;;;;;;;12.32;5.40;;;19.40;49.50;;;;;;5016340;28;20050;-77
2022/04/14 08:10:48;;;;;;;17.38;5.45;;;19.40;49.00;;;;;;5016597;28;20038;-77
2022/04/14 08:13:16;;;;;;;7.60;4.40;;;19.30;49.00;;;;;;5018170;28;20038;-74
2022/04/14 08:15:42;;;;;;;19.50;5.57;;;19.30;49.00;;;;;;5017070;28;20024;-76
2022/04/14 08:18:08;;;;;;;12.50;5.47;;;19.40;48.70;;;;;;5015538;28;20030;-75
2022/04/14 08:20:35;;;;;;;70.18;10.10;;;19.40;48.10;;;;;;5015457;28;20026;-77
2022/04/14 08:23:03;;;;;;;104.35;11.55;;;19.40;48.10;;;;;;5015185;28;20070;-81
2022/04/14 08:25:32;;;;;;;19.10;5.10;;;19.40;48.10;;;;;;5013425;28;20042;-76
2022/04/14 08:28:00;;;;;;;19.77;5.97;;;19.50;46.70;;;;;;5014881;28;20079;-76
2022/04/14 08:30:28;;;;;;;15.90;4.88;;;19.60;48.00;;;;;;5014904;28;20037;-74
2022/04/14 08:32:54;;;;;;;9.40;4.68;;;19.60;46.90;;;;;;5014802;28;20022;-73
2022/04/14 08:35:21;;;;;;;12.07;4.47;;;19.70;46.70;;;;;;5014765;28;20121;-71
2022/04/14 08:37:48;;;;;;;8.07;4.30;;;19.70;46.40;;;;;;5014888;28;20026;-77
2022/04/14 08:40:19;;;;;;;16.85;5.70;;;19.80;45.50;;;;;;5014237;28;20025;-72
2022/04/14 08:43:06;;;;;;;11.55;4.50;;;19.80;44.60;;;;;;5014559;28;20022;-70
2022/04/14 08:45:55;;;;;;;9.85;4.85;;;19.80;44.90;;;;;;5014215;28;20371;-76
2022/04/14 08:48:22;;;;;;;10.02;3.67;;;19.90;45.00;;;;;;5014079;28;20056;-76
2022/04/14 08:50:50;;;;;;;7.70;4.10;;;19.90;44.70;;;;;;5014681;28;20037;-78
2022/04/14 08:53:18;;;;;;;15.20;4.35;;;19.90;44.90;;;;;;5014584;28;20022;-72
2022/04/14 08:55:46;;;;;;;20.60;4.78;;;19.90;44.30;;;;;;5014726;28;20382;-77
2022/04/14 08:58:14;;;;;;;14.68;4.20;;;20.00;44.50;;;;;;5015143;28;20100;-77
2022/04/14 09:00:40;;;;;;;7.22;4.00;;;20.10;44.90;;;;;;5013270;28;20038;-78
2022/04/14 09:03:06;;;;;;;10.38;3.72;;;20.10;44.20;;;;;;5015133;28;20061;-75
2022/04/14 09:05:34;;;;;;;14.35;4.38;;;20.20;44.10;;;;;;5013181;28;20034;-80
2022/04/14 09:08:02;;;;;;;10.23;3.72;;;20.20;43.80;;;;;;5012792;28;20191;-77
2022/04/14 09:10:27;;;;;;;9.95;3.50;;;20.30;43.70;;;;;;5014372;28;20026;-78
2022/04/14 09:12:53;;;;;;;15.80;3.58;;;20.30;43.90;;;;;;5013334;28;20172;-74
2022/04/14 09:15:20;;;;;;;9.43;3.20;;;20.30;43.40;;;;;;5016154;28;20029;-71
2022/04/14 09:17:47;;;;;;;16.40;3.88;;;20.30;42.80;;;;;;5017100;28;20037;-71
2022/04/14 09:20:36;;;;;;;12.82;4.50;;;20.30;43.20;;;;;;5017607;28;20094;-74
2022/04/14 09:23:37;;;;;;;11.18;3.60;;;20.40;43.30;;;;;;5022285;28;20038;-77
2022/04/14 09:26:14;;;;;;;8.00;3.67;;;20.50;43.30;;;;;;4995430;28;20034;-82
2022/04/14 09:29:10;;;;;;;13.25;4.13;;;20.60;43.20;;;;;;5013418;28;20112;-78
2022/04/14 09:31:48;;;;;;;21.08;5.00;;;20.60;42.60;;;;;;5012446;28;20022;-80
2022/04/14 09:34:15;;;;;;;11.65;4.60;;;20.70;42.60;;;;;;5013494;28;20018;-75
2022/04/14 09:36:41;;;;;;;11.68;4.00;;;20.80;42.70;;;;;;5013336;28;20033;-72
2022/04/14 09:39:07;;;;;;;8.50;4.10;;;20.80;42.50;;;;;;5013468;28;20029;-77
2022/04/14 09:41:38;;;;;;;14.27;4.13;;;20.90;42.30;;;;;;5013486;28;20104;-75
2022/04/14 09:44:14;;;;;;;10.15;4.55;;;20.90;42.10;;;;;;5011870;28;20503;-77
2022/04/14 09:46:45;;;;;;;9.43;3.83;;;21.00;42.00;;;;;;5011929;28;20475;-75
2022/04/14 09:49:13;;;;;;;11.93;4.18;;;21.00;41.50;;;;;;5013403;28;20037;-81
2022/04/14 09:51:44;;;;;;;8.98;3.85;;;21.00;41.30;;;;;;5013326;28;20394;-79
2022/04/14 09:54:12;;;;;;;15.30;4.05;;;21.10;41.00;;;;;;5014196;28;20069;-74
2022/04/14 09:56:53;;;;;;;8.45;3.35;;;21.10;41.10;;;;;;5012417;28;20049;-76
2022/04/14 09:59:28;;;;;;;12.20;3.80;;;21.20;40.80;;;;;;5009570;28;20479;-76
2022/04/14 10:02:12;;;;;;;8.30;3.83;;;21.30;40.10;;;;;;5012360;28;20037;-80
2022/04/14 10:04:42;;;;;;;8.82;3.35;;;21.40;39.90;;;;;;5013098;28;20505;-73
2022/04/14 10:07:14;;;;;;;9.38;3.60;;;21.40;39.80;;;;;;5013139;28;20026;-72
2022/04/14 10:09:44;;;;;;;12.93;3.60;;;21.60;39.60;;;;;;5013301;28;20030;-77
2022/04/14 10:12:19;;;;;;;24.33;4.45;;;21.70;39.80;;;;;;5012481;28;20033;-78
2022/04/14 10:15:10;;;;;;;8.65;4.00;;;21.80;39.60;;;;;;5013573;28;20036;-78
2022/04/14 10:17:38;;;;;;;10.48;3.67;;;22.00;39.70;;;;;;5012037;28;20076;-76
2022/04/14 10:20:12;;;;;;;32.63;5.97;;;22.10;39.20;;;;;;5011319;28;20026;-77
2022/04/14 10:22:38;;;;;;;11.43;3.83;;;22.20;39.50;;;;;;5011886;28;20064;-77
2022/04/14 10:25:06;;;;;;;7.80;3.50;;;22.40;39.20;;;;;;5011363;28;20066;-77
2022/04/14 10:27:33;;;;;;;14.68;4.30;;;22.50;38.80;;;;;;5013018;28;20119;-75
2022/04/14 10:30:00;;;;;;;8.85;4.50;;;22.60;38.60;;;;;;5012727;28;20046;-76
2022/04/14 10:32:26;;;;;;;12.52;4.05;;;22.80;38.60;;;;;;5012831;28;20022;-75
2022/04/14 10:34:54;;;;;;;15.23;4.15;;;22.90;38.90;;;;;;5011533;28;20037;-75
2022/04/14 10:37:26;;;;;;;14.55;7.68;;;23.00;38.10;;;;;;5012882;28;20025;-80
2022/04/14 10:39:52;;;;;;;10.27;4.15;;;23.10;38.20;;;;;;5013056;28;20026;-76
2022/04/14 10:42:28;;;;;;;12.43;4.55;;;23.20;38.50;;;;;;5011508;28;20022;-77
2022/04/14 10:44:55;;;;;;;10.05;4.85;;;23.30;38.40;;;;;;5011021;28;20153;-76
2022/04/14 10:47:54;;;;;;;9.15;4.28;;;23.40;37.90;;;;;;5012319;28;20487;-76
2022/04/14 10:50:22;;;;;;;11.35;3.50;;;23.50;37.20;;;;;;5012557;28;20080;-75
2022/04/14 10:53:06;;;;;;;7.13;3.10;;;23.50;37.20;;;;;;5011063;28;20021;-75
2022/04/14 10:55:39;;;;;;;12.43;3.92;;;23.50;36.60;;;;;;5012541;28;20033;-74
2022/04/14 10:58:06;;;;;;;10.73;3.60;;;23.60;36.70;;;;;;5012354;28;20380;-75
2022/04/14 11:00:32;;;;;;;16.63;4.00;;;23.60;36.80;;;;;;5012339;28;20066;-71
2022/04/14 11:03:11;;;;;;;11.93;4.05;;;23.60;37.10;;;;;;5012664;28;20037;-76
2022/04/14 11:05:47;;;;;;;8.27;2.90;;;23.60;37.20;;;;;;5012708;28;20542;-81
2022/04/14 11:08:32;;;;;;;8.25;3.40;;;23.60;36.50;;;;;;5012874;28;20025;-74
2022/04/14 11:11:09;;;;;;;9.25;3.78;;;23.70;35.90;;;;;;5013628;28;20076;-76
2022/04/14 11:13:56;;;;;;;7.90;3.10;;;23.80;36.30;;;;;;5015444;28;20033;-82
2022/04/14 11:16:49;;;;;;;11.05;3.35;;;23.90;35.80;;;;;;5015533;28;20026;-84
2022/04/14 11:19:24;;;;;;;7.82;3.42;;;24.00;34.80;;;;;;5015567;28;20034;-82
2022/04/14 11:24:40;;;;;;;11.05;3.78;;;24.20;35.10;;;;;;5021137;28;20443;-82
2022/04/14 11:27:17;;;;;;;10.70;3.65;;;24.30;34.10;;;;;;5021359;28;20053;-82
2022/04/14 11:29:48;;;;;;;8.82;3.33;;;24.40;33.80;;;;;;5024360;28;20037;-79
2022/04/14 11:32:15;;;;;;;7.72;3.08;;;24.50;34.40;;;;;;5027338;28;20102;-81
2022/04/14 11:34:42;;;;;;;8.82;2.97;;;24.70;33.70;;;;;;5020979;28;20030;-78
2022/04/14 11:37:45;;;;;;;7.10;2.90;;;24.70;33.50;;;;;;5021298;28;20018;-76
2022/04/14 11:40:23;;;;;;;6.55;3.28;;;24.80;33.00;;;;;;5021267;28;20383;-80
2022/04/14 11:42:53;;;;;;;10.75;3.28;;;24.90;32.90;;;;;;5019536;28;20032;-78
2022/04/14 11:45:26;;;;;;;5.70;2.60;;;25.00;33.50;;;;;;5019383;28;20395;-77
2022/04/14 11:47:59;;;;;;;5.82;2.95;;;25.00;33.20;;;;;;5024757;28;20120;-79
2022/04/14 11:50:29;;;;;;;10.52;3.22;;;25.10;33.10;;;;;;5028554;28;20086;-77
2022/04/14 11:52:59;;;;;;;8.40;2.92;;;25.10;31.80;;;;;;5029474;28;20057;-78
2022/04/14 11:55:39;;;;;;;12.57;3.13;;;25.20;32.80;;;;;;5024933;28;20049;-77
2022/04/14 11:58:06;;;;;;;10.52;2.75;;;25.20;32.80;;;;;;5026662;28;20481;-76
2022/04/14 12:00:46;;;;;;;9.80;3.47;;;25.30;32.30;;;;;;5027501;28;20391;-78
2022/04/14 12:03:16;;;;;;;10.77;2.85;;;25.30;32.20;;;;;;5027865;28;20070;-78
2022/04/14 12:05:52;;;;;;;11.65;2.88;;;25.40;32.20;;;;;;5028326;28;20045;-79
2022/04/14 12:08:18;;;;;;;9.05;3.03;;;25.40;32.00;;;;;;5027754;28;20018;-81
2022/04/14 12:10:47;;;;;;;7.82;3.00;;;25.40;31.60;;;;;;5026022;28;20073;-81
2022/04/14 12:13:13;;;;;;;8.93;2.97;;;25.50;31.90;;;;;;5024981;28;20093;-79
2022/04/14 12:15:39;;;;;;;4.70;2.80;;;25.50;31.70;;;;;;5025298;28;20033;-82
2022/04/14 12:18:14;;;;;;;10.75;3.50;;;25.50;31.70;;;;;;5027069;28;20030;-80
2022/04/14 12:20:44;;;;;;;5.88;3.10;;;25.70;31.80;;;;;;5024282;28;20113;-81
2022/04/14 12:23:12;;;;;;;10.25;3.20;;;25.70;31.30;;;;;;5027203;28;20121;-80
2022/04/14 12:25:47;;;;;;;7.65;2.92;;;25.80;30.80;;;;;;5028417;28;20050;-78
2022/04/14 12:28:13;;;;;;;12.30;6.57;;;25.80;31.20;;;;;;5027880;28;20022;-78
2022/04/14 12:30:42;;;;;;;10.30;3.67;;;25.90;31.20;;;;;;5027830;28;20064;-77
2022/04/14 12:33:09;;;;;;;12.75;3.03;;;25.90;31.30;;;;;;5021905;28;20022;-81
2022/04/14 12:35:36;;;;;;;10.07;3.50;;;26.00;31.80;;;;;;5019630;28;20432;-81
2022/04/14 12:38:24;;;;;;;10.02;3.13;;;26.00;31.50;;;;;;5015876;28;20097;-82
2022/04/14 12:40:54;;;;;;;8.23;3.00;;;26.10;32.20;;;;;;5015289;28;20033;-81
2022/04/14 12:43:24;;;;;;;8.48;3.20;;;26.10;32.50;;;;;;5014499;28;20025;-82
2022/04/14 12:45:50;;;;;;;7.97;2.97;;;26.00;32.00;;;;;;5014821;28;20599;-81
2022/04/14 12:48:36;;;;;;;17.45;5.05;;;25.90;32.10;;;;;;5014775;28;20132;-80